Time;durP1;ratioP1;P1;durP2;ratioP2;P2;SDS_P1;SDS_P2;PMS_P1;PMS_P2;Temp;Humidity;BMP_temperature;BMP_pressure;BME280_temperature;BME280_humidity;BME280_pressure;Samples;Min_cycle;Max_cycle;Signal;HPM_P1;HPM_P2
2022/06/19 00:02:20;;;;;;;2.50;1.10;;;16.10;99.90;;;;;;5075422;28;20195;-65
2022/06/19 00:04:51;;;;;;;1.23;0.90;;;16.00;99.90;;;;;;5075777;28;20177;-66
2022/06/19 00:07:19;;;;;;;3.17;1.30;;;16.50;99.90;;;;;;5074834;28;20244;-65
2022/06/19 00:09:46;;;;;;;4.37;1.23;;;16.90;99.90;;;;;;5086772;28;20587;-65
2022/06/19 00:12:15;;;;;;;4.13;1.17;;;17.30;99.90;;;;;;5085723;28;20242;-64
2022/06/19 00:14:42;;;;;;;3.17;1.23;;;17.60;99.90;;;;;;5071700;28;20191;-64
2022/06/19 00:17:10;;;;;;;2.37;1.00;;;17.60;99.90;;;;;;5091691;28;20905;-65
2022/06/19 00:19:38;;;;;;;1.23;0.90;;;17.40;99.90;;;;;;5093870;28;20300;-65
2022/06/19 00:22:05;;;;;;;2.37;1.20;;;17.80;99.90;;;;;;5093927;28;20704;-65
2022/06/19 00:24:33;;;;;;;2.23;1.17;;;18.00;99.90;;;;;;5093952;28;20172;-65
2022/06/19 00:27:00;;;;;;;2.00;1.30;;;18.00;99.90;;;;;;5093668;28;20244;-65
2022/06/19 00:29:28;;;;;;;2.03;0.90;;;18.00;99.90;;;;;;5093812;28;20190;-65
2022/06/19 00:31:56;;;;;;;4.77;0.90;;;18.00;99.90;;;;;;5093889;28;20176;-65
2022/06/19 00:34:23;;;;;;;5.53;1.13;;;18.10;99.90;;;;;;5093438;28;20325;-65
2022/06/19 00:36:51;;;;;;;1.60;1.00;;;17.80;99.90;;;;;;5094525;28;20230;-67
2022/06/19 00:39:19;;;;;;;2.10;1.00;;;18.20;99.90;;;;;;5097215;28;20668;-65
2022/06/19 00:41:48;;;;;;;1.40;0.90;;;18.40;99.90;;;;;;5093104;28;20187;-63
2022/06/19 00:44:17;;;;;;;1.23;0.90;;;18.60;99.90;;;;;;5093376;28;20180;-65
2022/06/19 00:46:47;;;;;;;4.40;1.00;;;18.40;99.90;;;;;;5090322;28;20192;-66
2022/06/19 00:49:40;;;;;;;5.80;1.63;;;18.80;99.90;;;;;;5093593;28;20172;-65
2022/06/19 00:52:18;;;;;;;2.37;1.03;;;18.90;99.90;;;;;;5065664;28;20658;-65
2022/06/19 00:55:00;;;;;;;2.60;1.00;;;19.00;99.90;;;;;;5073142;28;20185;-65
2022/06/19 00:57:29;;;;;;;2.27;1.10;;;19.00;99.90;;;;;;5073320;28;20214;-65
2022/06/19 01:00:08;;;;;;;3.47;0.80;;;19.50;99.90;;;;;;5074662;28;20188;-66
2022/06/19 01:02:37;;;;;;;2.80;1.00;;;19.50;99.90;;;;;;5093383;28;20171;-66
2022/06/19 01:05:06;;;;;;;6.77;1.13;;;19.60;99.90;;;;;;5092686;28;20187;-65
2022/06/19 01:07:34;;;;;;;2.10;0.97;;;19.60;99.90;;;;;;5092898;28;20167;-65
2022/06/19 01:10:02;;;;;;;1.80;1.07;;;19.70;99.90;;;;;;5091360;28;20191;-65
2022/06/19 01:12:32;;;;;;;1.90;0.80;;;20.40;99.90;;;;;;5092792;28;20219;-65
2022/06/19 01:15:04;;;;;;;3.33;0.90;;;19.80;99.90;;;;;;5090218;28;20196;-66
2022/06/19 01:17:33;;;;;;;6.23;1.53;;;19.50;99.90;;;;;;5072481;28;20200;-65
2022/06/19 01:20:11;;;;;;;5.37;1.03;;;19.30;99.90;;;;;;5079983;28;20183;-64
2022/06/19 01:22:38;;;;;;;2.90;1.10;;;19.60;99.90;;;;;;5092929;28;20171;-66
2022/06/19 01:25:17;;;;;;;2.63;1.03;;;19.80;99.90;;;;;;5092675;28;20171;-64
2022/06/19 01:30:36;;;;;;;4.53;1.00;;;20.60;99.90;;;;;;5092996;28;20186;-65
2022/06/19 01:33:07;;;;;;;2.17;0.97;;;20.40;99.90;;;;;;5077513;28;20190;-65
2022/06/19 01:35:36;;;;;;;4.50;1.30;;;21.10;99.90;;;;;;5085109;28;20178;-68
2022/06/19 01:38:12;;;;;;;2.30;0.87;;;20.70;99.90;;;;;;5072222;28;20223;-67
2022/06/19 01:40:43;;;;;;;3.47;1.20;;;20.90;99.90;;;;;;5072262;28;20240;-67
2022/06/19 01:43:11;;;;;;;2.37;1.00;;;21.00;99.90;;;;;;5072233;28;20244;-67
2022/06/19 01:45:48;;;;;;;2.13;0.90;;;21.50;99.90;;;;;;5072128;28;20179;-67
2022/06/19 01:48:16;;;;;;;4.27;0.83;;;21.20;99.90;;;;;;5091634;28;20268;-67
2022/06/19 01:50:44;;;;;;;2.37;0.80;;;21.30;99.90;;;;;;5092241;28;20190;-67
2022/06/19 01:53:32;;;;;;;2.50;1.00;;;21.80;99.90;;;;;;5091992;28;20194;-67
2022/06/19 01:56:00;;;;;;;4.87;1.30;;;21.90;99.90;;;;;;5073573;28;20652;-67
2022/06/19 01:58:31;;;;;;;4.30;1.17;;;21.70;99.90;;;;;;5091420;28;20211;-66
2022/06/19 02:00:59;;;;;;;1.90;0.90;;;21.80;99.90;;;;;;5091553;28;20179;-68
2022/06/19 02:03:32;;;;;;;6.10;1.30;;;20.60;99.90;;;;;;5091819;28;20624;-67
2022/06/19 02:06:00;;;;;;;1.53;0.80;;;19.90;99.90;;;;;;5091177;28;20174;-67
2022/06/19 02:08:30;;;;;;;5.93;1.50;;;20.70;99.90;;;;;;5092038;28;20182;-67
2022/06/19 02:10:59;;;;;;;3.03;1.50;;;21.40;99.90;;;;;;5091318;28;20549;-67
2022/06/19 02:13:27;;;;;;;2.73;1.30;;;20.90;99.90;;;;;;5090872;28;20184;-67
2022/06/19 02:15:55;;;;;;;2.57;1.07;;;20.90;99.90;;;;;;5090886;28;20193;-68
2022/06/19 02:18:27;;;;;;;2.60;1.20;;;21.30;99.90;;;;;;5091557;28;20268;-68
2022/06/19 02:20:54;;;;;;;4.00;1.70;;;22.40;99.90;;;;;;5091637;28;20264;-67
2022/06/19 02:23:36;;;;;;;6.83;5.50;;;22.10;99.90;;;;;;5091166;28;20562;-68
2022/06/19 02:26:09;;;;;;;3.80;0.97;;;21.80;99.90;;;;;;5091349;28;20275;-67
2022/06/19 02:28:39;;;;;;;1.10;0.60;;;22.40;99.90;;;;;;5072594;28;20652;-68
2022/06/19 02:31:07;;;;;;;4.47;1.17;;;22.40;99.90;;;;;;5091524;28;20194;-68
2022/06/19 02:33:42;;;;;;;1.23;0.60;;;22.70;99.90;;;;;;5091243;28;20185;-67
2022/06/19 02:37:10;;;;;;;3.73;1.10;;;23.40;99.90;;;;;;5091187;28;20171;-68
2022/06/19 02:40:03;;;;;;;4.07;0.80;;;23.90;99.90;;;;;;4987289;28;20233;-66
2022/06/19 02:42:46;;;;;;;2.53;1.00;;;23.90;99.90;;;;;;5078706;28;20179;-67
2022/06/19 02:45:26;;;;;;;4.07;1.20;;;23.40;99.90;;;;;;5077575;28;20183;-67
2022/06/19 02:47:56;;;;;;;4.33;1.30;;;23.70;99.90;;;;;;5091325;28;20170;-67
2022/06/19 02:50:30;;;;;;;2.33;0.90;;;23.80;99.90;;;;;;5091236;28;20179;-66
2022/06/19 02:52:58;;;;;;;1.83;0.70;;;23.70;99.90;;;;;;5091065;28;20261;-67
2022/06/19 02:55:25;;;;;;;2.27;0.80;;;22.70;99.90;;;;;;5091058;28;20207;-66
2022/06/19 02:57:54;;;;;;;2.97;1.10;;;21.80;99.90;;;;;;5070847;28;20219;-67
2022/06/19 03:00:25;;;;;;;2.20;0.90;;;21.30;99.90;;;;;;5076759;28;20184;-67
2022/06/19 03:03:03;;;;;;;2.67;0.97;;;20.80;99.90;;;;;;5090924;28;20583;-67
2022/06/19 03:05:31;;;;;;;2.97;0.73;;;20.50;99.90;;;;;;5072260;28;20178;-66
2022/06/19 03:07:58;;;;;;;2.93;1.13;;;20.10;99.90;;;;;;5090692;28;20648;-64
2022/06/19 03:10:27;;;;;;;1.00;0.80;;;19.80;99.90;;;;;;5085725;28;20640;-65
2022/06/19 03:12:54;;;;;;;4.53;1.10;;;19.50;99.90;;;;;;5090619;28;20184;-65
2022/06/19 03:15:21;;;;;;;6.57;1.43;;;19.30;99.90;;;;;;5089605;28;20215;-65
2022/06/19 03:17:49;;;;;;;3.50;1.20;;;18.80;99.90;;;;;;5090671;28;20203;-66
2022/06/19 03:20:19;;;;;;;3.17;1.17;;;18.70;99.90;;;;;;5072551;28;20278;-66
2022/06/19 03:22:46;;;;;;;5.73;0.90;;;18.50;99.90;;;;;;5072780;28;20585;-67
2022/06/19 03:25:14;;;;;;;1.37;0.90;;;18.20;99.90;;;;;;5090792;28;20169;-66
2022/06/19 03:27:41;;;;;;;1.90;1.10;;;18.10;99.90;;;;;;5091298;28;20263;-67
2022/06/19 03:30:09;;;;;;;3.63;1.13;;;18.30;99.90;;;;;;5094772;28;20526;-66
2022/06/19 03:32:36;;;;;;;9.83;1.87;;;19.50;99.90;;;;;;5094543;28;20302;-68
2022/06/19 03:35:04;;;;;;;3.97;1.40;;;21.10;99.90;;;;;;5094690;28;20651;-67
2022/06/19 03:37:31;;;;;;;3.70;1.20;;;21.70;99.90;;;;;;5094379;28;20203;-65
2022/06/19 03:39:59;;;;;;;2.10;0.97;;;22.40;99.90;;;;;;5094551;28;20175;-66
2022/06/19 03:42:26;;;;;;;3.23;0.90;;;23.10;99.90;;;;;;5092995;28;20185;-67
2022/06/19 03:44:53;;;;;;;9.53;0.90;;;23.10;99.90;;;;;;5094425;28;20201;-66
2022/06/19 03:47:23;;;;;;;5.70;1.27;;;22.80;99.90;;;;;;5094318;28;20181;-66
2022/06/19 03:49:51;;;;;;;4.70;2.27;;;21.80;99.90;;;;;;5094379;28;20190;-67
2022/06/19 03:52:19;;;;;;;10.17;6.50;;;20.40;99.90;;;;;;5094434;28;20182;-67
2022/06/19 03:54:46;;;;;;;4.00;1.37;;;19.60;99.90;;;;;;5093998;28;20258;-67
2022/06/19 03:57:14;;;;;;;5.37;1.53;;;19.20;99.90;;;;;;5094059;28;20679;-68
2022/06/19 03:59:42;;;;;;;5.03;1.23;;;19.00;99.90;;;;;;5094483;28;20229;-67
2022/06/19 04:02:10;;;;;;;2.37;1.13;;;18.70;99.90;;;;;;5075785;28;20582;-68
2022/06/19 04:04:39;;;;;;;3.27;1.00;;;18.60;99.90;;;;;;5093888;28;20173;-67
2022/06/19 04:07:10;;;;;;;3.63;1.33;;;18.60;99.90;;;;;;5093565;28;20258;-67
2022/06/19 04:09:38;;;;;;;6.67;1.23;;;18.60;99.90;;;;;;5093871;28;20197;-67
2022/06/19 04:12:05;;;;;;;3.93;1.20;;;18.60;99.90;;;;;;5075785;28;20187;-67
2022/06/19 04:14:33;;;;;;;6.70;1.00;;;19.10;99.90;;;;;;5092987;28;20278;-67
2022/06/19 04:17:01;;;;;;;4.17;1.30;;;20.50;99.90;;;;;;5092601;28;20222;-66
2022/06/19 04:19:29;;;;;;;5.97;1.30;;;21.60;99.90;;;;;;5093662;28;20203;-68
2022/06/19 04:21:56;;;;;;;1.97;0.80;;;21.80;99.90;;;;;;5079380;28;20653;-67
2022/06/19 04:24:24;;;;;;;5.43;1.07;;;21.60;99.90;;;;;;5093536;28;20187;-67
2022/06/19 04:26:51;;;;;;;1.80;1.00;;;21.90;99.90;;;;;;5092634;28;20218;-67
2022/06/19 04:29:23;;;;;;;3.77;1.30;;;21.90;99.90;;;;;;5093221;28;20584;-67
2022/06/19 04:31:50;;;;;;;3.83;0.93;;;22.00;99.90;;;;;;5093766;28;20194;-67
2022/06/19 04:34:18;;;;;;;3.87;0.90;;;22.00;99.90;;;;;;5093470;28;20189;-68
2022/06/19 04:36:45;;;;;;;2.67;1.10;;;22.00;99.90;;;;;;5092858;28;20187;-67
2022/06/19 04:39:14;;;;;;;4.50;0.87;;;21.90;99.90;;;;;;5093085;28;20190;-67
2022/06/19 04:41:43;;;;;;;5.23;1.20;;;22.20;99.90;;;;;;5092526;28;20183;-67
2022/06/19 04:44:15;;;;;;;3.33;1.33;;;21.90;99.90;;;;;;5093320;28;20311;-67
2022/06/19 04:46:44;;;;;;;3.57;0.83;;;21.00;99.90;;;;;;5092308;28;20188;-67
2022/06/19 04:49:12;;;;;;;2.17;1.00;;;20.20;99.90;;;;;;5093407;28;20197;-68
2022/06/19 04:51:40;;;;;;;6.83;1.40;;;19.50;99.90;;;;;;5092925;28;20232;-67
2022/06/19 04:54:08;;;;;;;5.17;1.20;;;18.80;99.90;;;;;;5092797;28;20261;-67
2022/06/19 04:56:36;;;;;;;3.70;1.10;;;18.50;99.90;;;;;;5087396;28;20525;-67
2022/06/19 04:59:05;;;;;;;4.63;1.00;;;18.30;99.90;;;;;;5092730;28;20191;-67
2022/06/19 05:01:38;;;;;;;3.63;0.90;;;18.20;99.90;;;;;;5093139;28;20187;-68
2022/06/19 05:04:09;;;;;;;3.30;1.13;;;18.10;99.90;;;;;;5092870;28;20191;-68
2022/06/19 05:06:37;;;;;;;2.93;0.97;;;18.00;99.90;;;;;;5092733;28;20672;-68
2022/06/19 05:09:05;;;;;;;5.13;1.07;;;18.00;99.90;;;;;;5093131;28;20214;-67
2022/06/19 05:11:32;;;;;;;6.17;1.27;;;18.00;99.90;;;;;;5093153;28;20199;-67
2022/06/19 05:14:01;;;;;;;5.83;1.13;;;18.00;99.90;;;;;;5092796;28;20244;-66
2022/06/19 05:16:29;;;;;;;6.97;1.40;;;17.80;99.90;;;;;;5093171;28;20176;-68
2022/06/19 05:18:57;;;;;;;6.77;0.90;;;17.70;99.90;;;;;;5092698;28;20211;-68
2022/06/19 05:21:26;;;;;;;3.03;1.23;;;17.60;99.90;;;;;;5093061;28;20255;-66
2022/06/19 05:23:54;;;;;;;3.40;1.00;;;17.50;99.90;;;;;;5093027;28;20714;-67
2022/06/19 05:26:26;;;;;;;7.67;1.53;;;17.40;99.90;;;;;;5092841;28;20211;-68
2022/06/19 05:28:55;;;;;;;5.27;1.40;;;17.50;99.90;;;;;;5093087;28;20178;-66
2022/06/19 05:31:23;;;;;;;2.50;1.10;;;17.40;99.90;;;;;;5093015;28;20578;-66
2022/06/19 05:33:51;;;;;;;3.87;1.00;;;17.60;99.90;;;;;;5092616;28;20570;-68
2022/06/19 05:36:19;;;;;;;2.93;1.23;;;17.60;99.90;;;;;;5092724;28;20191;-68
2022/06/19 05:38:46;;;;;;;6.87;1.70;;;17.50;99.90;;;;;;5092711;28;20211;-67
2022/06/19 05:41:14;;;;;;;3.07;1.30;;;17.40;99.90;;;;;;5092707;28;20164;-68
2022/06/19 05:43:42;;;;;;;3.40;1.17;;;17.30;99.90;;;;;;5092113;28;20191;-67
2022/06/19 05:46:15;;;;;;;4.07;1.00;;;17.30;99.90;;;;;;5092597;28;20187;-68
2022/06/19 05:48:43;;;;;;;5.00;1.40;;;17.30;99.90;;;;;;5092754;28;20255;-66
2022/06/19 05:51:22;;;;;;;4.20;1.20;;;17.40;99.90;;;;;;5091803;28;20187;-67
2022/06/19 05:53:56;;;;;;;3.30;1.30;;;17.30;99.90;;;;;;5092465;28;20236;-68
2022/06/19 05:56:25;;;;;;;5.47;1.10;;;17.30;99.90;;;;;;5092552;28;20253;-67
2022/06/19 05:58:52;;;;;;;5.43;1.33;;;17.20;99.90;;;;;;5092373;28;20249;-67
2022/06/19 06:01:21;;;;;;;5.97;1.33;;;17.10;99.90;;;;;;5092543;28;20175;-68
2022/06/19 06:03:49;;;;;;;4.73;1.50;;;17.00;99.90;;;;;;5092109;28;20182;-68
2022/06/19 06:06:20;;;;;;;3.93;1.10;;;17.00;99.90;;;;;;5092346;28;20178;-68
2022/06/19 06:08:48;;;;;;;4.77;1.40;;;16.90;99.90;;;;;;5091962;28;20171;-66
2022/06/19 06:11:16;;;;;;;4.37;1.50;;;16.90;99.90;;;;;;5091952;28;20179;-66
2022/06/19 06:13:43;;;;;;;5.90;1.10;;;16.80;99.90;;;;;;5092337;28;20178;-66
2022/06/19 06:16:12;;;;;;;4.27;1.30;;;16.80;99.90;;;;;;5091983;28;20206;-66
2022/06/19 06:18:40;;;;;;;4.97;1.07;;;16.80;99.90;;;;;;5092062;28;20215;-67
2022/06/19 06:21:12;;;;;;;5.07;1.27;;;16.70;99.90;;;;;;5073750;28;20652;-66
2022/06/19 06:23:41;;;;;;;3.73;1.40;;;16.60;99.90;;;;;;5092096;28;20304;-66
2022/06/19 06:26:17;;;;;;;10.93;1.73;;;16.50;99.90;;;;;;5091980;28;20223;-67
2022/06/19 06:28:48;;;;;;;4.13;1.13;;;16.50;99.90;;;;;;5091974;28;20636;-67
2022/06/19 06:31:16;;;;;;;3.50;1.47;;;16.50;99.90;;;;;;5091946;28;20178;-67
2022/06/19 06:33:44;;;;;;;4.93;1.17;;;16.40;99.90;;;;;;5091818;28;20183;-66
2022/06/19 06:36:11;;;;;;;6.77;1.43;;;16.30;99.90;;;;;;5091527;28;20179;-67
2022/06/19 06:38:39;;;;;;;3.60;1.10;;;16.10;99.90;;;;;;5091805;28;20211;-68
2022/06/19 06:41:09;;;;;;;3.63;1.23;;;16.00;99.90;;;;;;5091512;28;20268;-67
2022/06/19 06:43:39;;;;;;;4.60;1.80;;;16.00;99.90;;;;;;5091963;28;20179;-67
2022/06/19 06:46:08;;;;;;;4.87;1.73;;;15.80;99.90;;;;;;5091767;28;20176;-67
2022/06/19 06:48:35;;;;;;;4.83;1.63;;;15.70;99.90;;;;;;5091886;28;20250;-67
2022/06/19 06:51:08;;;;;;;6.33;1.60;;;15.50;99.90;;;;;;5091415;28;20232;-66
2022/06/19 06:53:35;;;;;;;5.17;1.30;;;15.50;99.90;;;;;;5091767;28;20550;-67
2022/06/19 06:56:03;;;;;;;3.33;1.23;;;15.40;99.90;;;;;;5091793;28;20691;-66
2022/06/19 06:58:30;;;;;;;1.97;1.33;;;15.30;99.90;;;;;;5091659;28;20217;-67
2022/06/19 07:00:57;;;;;;;4.90;1.50;;;15.20;99.90;;;;;;5091556;28;20179;-67
2022/06/19 07:03:25;;;;;;;6.10;1.67;;;15.20;99.90;;;;;;5094421;28;20214;-67
2022/06/19 07:05:52;;;;;;;8.03;2.17;;;15.20;99.90;;;;;;5095772;28;20263;-65
2022/06/19 07:08:19;;;;;;;3.57;1.63;;;15.00;99.90;;;;;;5095298;28;20191;-66
2022/06/19 07:10:47;;;;;;;6.23;1.63;;;14.90;99.90;;;;;;5094510;28;20608;-69
2022/06/19 07:13:14;;;;;;;7.53;1.87;;;14.80;99.90;;;;;;5095661;28;20190;-67
2022/06/19 07:15:41;;;;;;;7.43;1.90;;;14.70;99.90;;;;;;5095348;28;20266;-67
2022/06/19 07:18:09;;;;;;;4.57;1.80;;;14.50;99.90;;;;;;5095530;28;20217;-67
2022/06/19 07:20:36;;;;;;;6.33;2.23;;;14.40;99.90;;;;;;5095586;28;20207;-68
2022/06/19 07:23:06;;;;;;;3.63;1.67;;;14.20;99.90;;;;;;5095340;28;20560;-67
2022/06/19 07:25:34;;;;;;;5.17;2.20;;;14.10;99.90;;;;;;5095336;28;20211;-67
2022/06/19 07:28:01;;;;;;;6.33;2.30;;;14.10;99.90;;;;;;5095576;28;20179;-66
2022/06/19 07:30:29;;;;;;;5.13;2.43;;;14.00;99.90;;;;;;5076802;28;20222;-67
2022/06/19 07:32:57;;;;;;;7.87;2.83;;;13.90;99.90;;;;;;5095027;28;20190;-67
2022/06/19 07:35:25;;;;;;;5.47;2.47;;;13.90;99.90;;;;;;5095375;28;20275;-67
2022/06/19 07:37:53;;;;;;;9.93;3.57;;;13.90;99.90;;;;;;5095163;28;20294;-67
2022/06/19 07:40:22;;;;;;;7.43;3.93;;;13.90;99.90;;;;;;5095393;28;20509;-67
2022/06/19 07:42:50;;;;;;;9.73;4.77;;;14.00;99.90;;;;;;5094865;28;20195;-67
2022/06/19 07:45:17;;;;;;;14.80;7.50;;;14.10;99.90;;;;;;5094906;28;20672;-67
2022/06/19 07:50:30;;;;;;;18.30;10.57;;;14.10;99.90;;;;;;5095192;28;20652;-67
2022/06/19 07:52:58;;;;;;;15.33;8.67;;;14.10;99.90;;;;;;5094521;28;20306;-67
2022/06/19 07:55:28;;;;;;;13.30;5.53;;;14.20;99.90;;;;;;5094839;28;20525;-67
2022/06/19 07:57:56;;;;;;;14.40;6.43;;;14.20;99.90;;;;;;5094561;28;20270;-67
2022/06/19 08:00:26;;;;;;;10.10;5.73;;;14.20;99.90;;;;;;5077047;28;20175;-67
2022/06/19 08:02:54;;;;;;;10.77;4.83;;;14.20;99.90;;;;;;5094514;28;20184;-66
2022/06/19 08:05:25;;;;;;;8.43;4.77;;;14.20;99.90;;;;;;5094580;28;20179;-67
2022/06/19 08:07:53;;;;;;;11.40;5.47;;;14.20;99.90;;;;;;5094762;28;20193;-67
2022/06/19 08:10:30;;;;;;;8.13;5.23;;;14.20;99.90;;;;;;5094216;28;20549;-67
2022/06/19 08:12:58;;;;;;;9.20;5.27;;;14.30;99.90;;;;;;5094336;28;20232;-67
2022/06/19 08:15:26;;;;;;;13.10;5.63;;;14.40;99.90;;;;;;5093858;28;20659;-67
2022/06/19 08:17:54;;;;;;;10.77;5.27;;;14.40;99.90;;;;;;5094398;28;20207;-67
2022/06/19 08:20:22;;;;;;;7.80;4.50;;;14.50;99.90;;;;;;5094431;28;20254;-67
2022/06/19 08:22:50;;;;;;;6.07;3.57;;;14.50;99.90;;;;;;5094174;28;20342;-67
2022/06/19 08:25:19;;;;;;;7.97;3.23;;;14.50;99.90;;;;;;5075913;28;20665;-67
2022/06/19 08:27:49;;;;;;;7.93;3.03;;;14.60;99.90;;;;;;5094060;28;20195;-68
2022/06/19 08:30:28;;;;;;;8.57;3.60;;;14.50;99.90;;;;;;5094404;28;20168;-66
2022/06/19 08:32:55;;;;;;;6.47;2.60;;;14.50;99.90;;;;;;5093814;28;20681;-66
2022/06/19 08:35:24;;;;;;;7.73;3.23;;;14.50;99.90;;;;;;5092796;28;20176;-65
2022/06/19 08:37:55;;;;;;;6.43;3.00;;;14.40;99.90;;;;;;5093619;28;20308;-64
2022/06/19 08:40:38;;;;;;;7.13;4.37;;;14.40;99.90;;;;;;5095648;28;20177;-64
2022/06/19 08:43:51;;;;;;;8.30;4.40;;;14.40;99.90;;;;;;5081284;28;20177;-65
2022/06/19 08:46:45;;;;;;;10.57;4.63;;;14.40;99.90;;;;;;5073771;28;20176;-66
2022/06/19 08:49:27;;;;;;;6.17;3.30;;;14.30;99.90;;;;;;5073588;28;20187;-66
2022/06/19 08:52:19;;;;;;;12.17;2.97;;;14.30;99.90;;;;;;5073730;28;20774;-65
2022/06/19 08:54:49;;;;;;;7.10;2.47;;;14.30;99.90;;;;;;5086102;28;20214;-66
2022/06/19 08:57:40;;;;;;;7.57;1.97;;;14.50;99.90;;;;;;5094003;28;20203;-66
2022/06/19 09:00:29;;;;;;;7.60;2.07;;;14.40;99.90;;;;;;5093818;28;20171;-65
2022/06/19 09:03:20;;;;;;;4.47;2.10;;;14.40;99.90;;;;;;5075444;28;20179;-66
2022/06/19 09:05:50;;;;;;;4.50;1.97;;;14.40;99.90;;;;;;5093522;28;20175;-66
2022/06/19 09:08:38;;;;;;;4.17;2.63;;;14.40;99.90;;;;;;5093649;28;20202;-67
2022/06/19 09:11:19;;;;;;;3.37;1.87;;;14.30;99.90;;;;;;5093512;28;20535;-66
2022/06/19 09:14:07;;;;;;;4.93;2.00;;;14.30;99.90;;;;;;5080229;28;20183;-67
2022/06/19 09:16:41;;;;;;;6.07;2.27;;;14.30;99.90;;;;;;5073165;28;20206;-67
2022/06/19 09:19:20;;;;;;;5.93;2.40;;;14.30;99.90;;;;;;5072804;28;20188;-67
2022/06/19 09:22:15;;;;;;;6.20;2.07;;;14.20;99.90;;;;;;5091977;28;20264;-68
2022/06/19 09:24:45;;;;;;;7.87;2.23;;;14.30;99.90;;;;;;5093230;28;20179;-67
2022/06/19 09:27:14;;;;;;;6.57;2.33;;;14.30;99.90;;;;;;5092979;28;20235;-67
2022/06/19 09:29:49;;;;;;;4.90;2.47;;;14.30;99.90;;;;;;5074556;28;20244;-67
2022/06/19 09:32:44;;;;;;;14.73;4.57;;;14.20;99.90;;;;;;5092894;28;20175;-67
2022/06/19 09:35:22;;;;;;;9.97;5.03;;;14.10;99.90;;;;;;5082206;28;20198;-67
2022/06/19 09:37:55;;;;;;;10.33;4.40;;;14.00;99.90;;;;;;5092959;28;20213;-67
2022/06/19 09:40:25;;;;;;;7.87;4.00;;;14.00;99.90;;;;;;5093029;28;20206;-67
2022/06/19 09:43:14;;;;;;;6.20;3.60;;;13.90;99.90;;;;;;5092545;28;20184;-67
2022/06/19 09:46:09;;;;;;;12.97;3.40;;;13.80;99.90;;;;;;5092776;28;20179;-68
2022/06/19 09:49:13;;;;;;;7.93;3.73;;;13.80;99.90;;;;;;5089561;28;20202;-67
2022/06/19 09:52:12;;;;;;;6.33;3.50;;;13.80;99.90;;;;;;5092367;28;20188;-67
2022/06/19 09:54:45;;;;;;;5.20;3.00;;;13.80;99.90;;;;;;5092768;28;20192;-67
2022/06/19 09:57:30;;;;;;;6.93;3.27;;;13.80;99.90;;;;;;5092405;28;20213;-67
2022/06/19 10:00:09;;;;;;;6.47;3.87;;;13.80;99.90;;;;;;5092426;28;20194;-67
2022/06/19 10:02:46;;;;;;;10.97;4.90;;;13.70;99.90;;;;;;5091653;28;20175;-68
2022/06/19 10:05:36;;;;;;;8.77;4.50;;;13.70;99.90;;;;;;5093274;28;20175;-68
2022/06/19 10:08:14;;;;;;;8.63;5.07;;;13.60;99.90;;;;;;5093395;28;20190;-68
2022/06/19 10:11:11;;;;;;;8.70;5.30;;;13.60;99.90;;;;;;5093110;28;20238;-67
2022/06/19 10:13:44;;;;;;;11.63;5.67;;;13.50;99.90;;;;;;5093397;28;20175;-68
2022/06/19 10:16:39;;;;;;;8.63;5.27;;;13.50;99.90;;;;;;5093001;28;20187;-68
2022/06/19 10:19:28;;;;;;;11.87;5.10;;;13.50;99.90;;;;;;5093723;28;20223;-68
2022/06/19 10:22:32;;;;;;;6.97;4.50;;;13.50;99.90;;;;;;5093112;28;20182;-68
2022/06/19 10:25:17;;;;;;;9.37;5.50;;;13.40;99.90;;;;;;5093562;28;20232;-69
2022/06/19 10:27:55;;;;;;;8.93;5.40;;;13.40;99.90;;;;;;5093463;28;21028;-68
2022/06/19 10:30:25;;;;;;;7.90;4.70;;;13.40;99.90;;;;;;5092961;28;20217;-68
2022/06/19 10:33:15;;;;;;;7.53;4.43;;;13.40;99.90;;;;;;5093495;28;20209;-66
2022/06/19 10:35:57;;;;;;;9.87;4.77;;;13.40;99.90;;;;;;5093204;28;20205;-68
2022/06/19 10:38:39;;;;;;;8.83;4.40;;;13.40;99.90;;;;;;5092723;28;20570;-67
2022/06/19 10:42:00;;;;;;;5.73;3.57;;;13.40;99.90;;;;;;5093318;28;20175;-68
2022/06/19 10:44:19;;;;;;;6.23;3.50;;;13.40;99.90;;;;;;5092995;28;20620;-67
2022/06/19 10:46:54;;;;;;;6.13;3.50;;;13.40;99.90;;;;;;5093196;28;20177;-67
2022/06/19 10:49:44;;;;;;;5.63;3.47;;;13.40;99.90;;;;;;5093155;28;20201;-69
2022/06/19 10:52:40;;;;;;;4.83;3.13;;;13.30;99.90;;;;;;5093314;28;20177;-67
2022/06/19 10:55:43;;;;;;;5.17;2.83;;;13.30;99.90;;;;;;5091398;28;20194;-68
2022/06/19 10:58:16;;;;;;;6.27;3.30;;;13.30;99.90;;;;;;5062825;28;20587;-68
2022/06/19 11:00:45;;;;;;;6.63;3.20;;;13.20;99.90;;;;;;5074673;28;20178;-68
2022/06/19 11:06:52;;;;;;;12.03;3.07;;;13.20;99.90;;;;;;5073037;28;20186;-68
2022/06/19 11:09:43;;;;;;;5.20;3.00;;;13.10;99.90;;;;;;5086910;28;20182;-68
2022/06/19 11:12:24;;;;;;;5.90;3.43;;;13.10;99.90;;;;;;5092463;28;20182;-68
2022/06/19 11:14:57;;;;;;;8.13;3.87;;;13.00;99.90;;;;;;5092568;28;20225;-68
2022/06/19 11:17:34;;;;;;;8.93;3.97;;;13.00;99.90;;;;;;5092706;28;20205;-68
2022/06/19 11:20:17;;;;;;;5.60;3.17;;;13.00;99.90;;;;;;5092985;28;20239;-68
2022/06/19 11:22:47;;;;;;;6.60;3.67;;;13.00;99.90;;;;;;5093034;28;20257;-68
2022/06/19 11:25:23;;;;;;;5.67;3.40;;;12.90;99.90;;;;;;5092487;28;20178;-68
2022/06/19 11:27:57;;;;;;;7.00;3.87;;;12.80;99.90;;;;;;5092014;28;20187;-68
2022/06/19 11:30:31;;;;;;;7.07;3.20;;;12.80;99.90;;;;;;5098289;28;20194;-67
2022/06/19 11:33:00;;;;;;;5.63;2.77;;;12.70;99.90;;;;;;5092961;28;20166;-68
2022/06/19 11:35:41;;;;;;;4.40;2.83;;;12.70;99.90;;;;;;5094063;28;20265;-68
2022/06/19 11:38:10;;;;;;;4.70;2.70;;;12.70;99.90;;;;;;5092543;28;20214;-69
2022/06/19 11:40:46;;;;;;;4.27;2.60;;;12.70;99.90;;;;;;5092602;28;20181;-68
2022/06/19 11:43:42;;;;;;;6.90;2.33;;;12.80;99.90;;;;;;5089011;28;20239;-67
2022/06/19 11:46:26;;;;;;;6.60;2.43;;;12.90;99.90;;;;;;5070960;28;20656;-68
2022/06/19 11:48:54;;;;;;;6.97;2.63;;;12.90;99.90;;;;;;5075252;28;20231;-68
2022/06/19 11:51:30;;;;;;;6.07;2.03;;;13.00;99.90;;;;;;5096385;28;20175;-67
2022/06/19 11:53:58;;;;;;;3.77;2.10;;;13.00;99.90;;;;;;5096471;28;20184;-68
2022/06/19 11:56:37;;;;;;;8.50;2.03;;;13.00;99.90;;;;;;5087074;28;20182;-67
2022/06/19 11:59:26;;;;;;;4.10;2.30;;;12.90;99.90;;;;;;5085485;28;20256;-67
2022/06/19 12:01:54;;;;;;;4.37;2.00;;;12.90;99.90;;;;;;5076043;28;20179;-67
2022/06/19 12:04:31;;;;;;;2.20;1.70;;;12.90;99.90;;;;;;5075926;28;20175;-68
2022/06/19 12:07:03;;;;;;;3.97;2.10;;;12.90;99.90;;;;;;5075994;28;20515;-68
2022/06/19 12:09:58;;;;;;;4.13;1.80;;;12.80;99.90;;;;;;5075769;28;20182;-68
2022/06/19 12:12:26;;;;;;;5.27;2.20;;;12.80;99.90;;;;;;5075982;28;20179;-68
2022/06/19 12:15:13;;;;;;;5.60;2.13;;;12.80;99.90;;;;;;5075614;28;20216;-68
2022/06/19 12:17:44;;;;;;;6.30;2.60;;;12.70;99.90;;;;;;5057377;28;20582;-68
2022/06/19 12:20:11;;;;;;;3.63;2.40;;;12.70;99.90;;;;;;5075429;28;20229;-68
2022/06/19 12:22:53;;;;;;;5.23;2.53;;;12.70;99.90;;;;;;5083862;28;20655;-67
2022/06/19 12:25:34;;;;;;;8.17;3.53;;;12.60;99.90;;;;;;5094832;28;20173;-67
2022/06/19 12:28:37;;;;;;;7.77;3.80;;;12.60;99.90;;;;;;5085194;28;20202;-67
2022/06/19 12:31:20;;;;;;;5.27;3.10;;;12.50;99.90;;;;;;5075357;28;20182;-67
2022/06/19 12:33:58;;;;;;;5.33;3.50;;;12.50;99.90;;;;;;5093276;28;20636;-68
2022/06/19 12:36:36;;;;;;;5.17;3.33;;;12.40;99.90;;;;;;5095371;28;20647;-67
2022/06/19 12:39:17;;;;;;;8.57;3.40;;;12.40;99.90;;;;;;5095256;28;20321;-67
2022/06/19 12:42:10;;;;;;;7.37;3.83;;;12.40;99.90;;;;;;5095345;28;20167;-67
2022/06/19 12:45:10;;;;;;;7.27;3.80;;;12.30;99.90;;;;;;5075147;28;20181;-67
2022/06/19 12:48:06;;;;;;;8.07;4.20;;;12.30;99.90;;;;;;5059068;28;20190;-67
2022/06/19 12:50:55;;;;;;;8.47;4.03;;;12.30;99.90;;;;;;5056942;28;20190;-67
2022/06/19 12:54:02;;;;;;;6.63;4.00;;;12.30;99.90;;;;;;5094795;28;20631;-68
2022/06/19 12:56:48;;;;;;;6.70;3.57;;;12.20;99.90;;;;;;5094941;28;20185;-68
2022/06/19 13:00:03;;;;;;;6.20;3.80;;;12.20;99.90;;;;;;5094493;28;20680;-68
2022/06/19 13:02:37;;;;;;;7.73;3.57;;;12.20;99.90;;;;;;5051138;28;20188;-68
2022/06/19 13:05:16;;;;;;;6.03;3.90;;;12.20;99.90;;;;;;5094939;28;20498;-68
2022/06/19 13:08:04;;;;;;;7.30;3.87;;;12.20;99.90;;;;;;5094418;28;20191;-68
2022/06/19 13:10:50;;;;;;;6.57;3.93;;;12.20;99.90;;;;;;5094925;28;20635;-68
2022/06/19 13:13:52;;;;;;;6.77;3.63;;;12.20;99.90;;;;;;5094865;28;20631;-68
2022/06/19 13:16:35;;;;;;;12.13;4.17;;;12.20;99.90;;;;;;5093383;28;20183;-68
2022/06/19 13:19:34;;;;;;;7.43;4.03;;;12.20;99.90;;;;;;5094362;28;20244;-67
2022/06/19 13:22:20;;;;;;;7.20;3.93;;;12.20;99.90;;;;;;5093783;28;20180;-67
2022/06/19 13:25:19;;;;;;;9.57;5.30;;;12.20;99.90;;;;;;5094361;28;20189;-68
2022/06/19 13:28:05;;;;;;;5.10;3.50;;;12.20;99.90;;;;;;5088251;28;20200;-68
2022/06/19 13:30:47;;;;;;;6.50;4.10;;;12.20;99.90;;;;;;5094326;28;20178;-68
2022/06/19 13:33:17;;;;;;;6.70;4.17;;;12.30;99.90;;;;;;5094605;28;20166;-68